Time;durP1;ratioP1;P1;durP2;ratioP2;P2;SDS_P1;SDS_P2;PMS_P1;PMS_P2;Temp;Humidity;BMP_temperature;BMP_pressure;BME280_temperature;BME280_humidity;BME280_pressure;Samples;Min_cycle;Max_cycle;Signal;HPM_P1;HPM_P2
2023/03/18 00:02:14;;;;;;;17.87;11.13;;;;;;;;;;4991047;28;20176;-72
2023/03/18 00:04:39;;;;;;;14.07;11.20;;;;;;;;;;4991373;28;20215;-72
2023/03/18 00:07:05;;;;;;;14.70;11.40;;;;;;;;;;4980729;28;21104;-72
2023/03/18 00:09:30;;;;;;;14.57;10.87;;;;;;;;;;4981270;28;20283;-72
2023/03/18 00:11:55;;;;;;;19.77;11.67;;;;;;;;;;4985526;28;20595;-72
2023/03/18 00:14:21;;;;;;;16.00;11.43;;;;;;;;;;4983872;28;20188;-72
2023/03/18 00:16:47;;;;;;;16.83;12.00;;;;;;;;;;4989264;28;20231;-72
2023/03/18 00:19:13;;;;;;;15.57;11.00;;;;;;;;;;4988277;28;20605;-73
2023/03/18 00:21:38;;;;;;;15.57;11.40;;;;;;;;;;4980387;28;20199;-73
2023/03/18 00:24:03;;;;;;;14.87;12.37;;;;;;;;;;4985155;28;20621;-73
2023/03/18 00:26:29;;;;;;;17.27;12.47;;;;;;;;;;4990381;28;20656;-72
2023/03/18 00:28:55;;;;;;;19.33;12.23;;;;;;;;;;4984515;28;20715;-72
2023/03/18 00:31:20;;;;;;;16.27;12.77;;;;;;;;;;4982044;28;20199;-72
2023/03/18 00:33:46;;;;;;;17.57;12.57;;;;;;;;;;4986639;28;20676;-71
2023/03/18 00:36:12;;;;;;;15.83;11.93;;;;;;;;;;4996191;28;20941;-71
2023/03/18 00:38:38;;;;;;;16.87;12.57;;;;;;;;;;4993187;28;20603;-71
2023/03/18 00:41:10;;;;;;;14.10;11.33;;;;;;;;;;4995193;28;20290;-71
2023/03/18 00:43:44;;;;;;;14.90;12.60;;;;;;;;;;4992478;28;20262;-71
2023/03/18 00:46:10;;;;;;;15.40;11.83;;;;;;;;;;4994297;28;20546;-71
2023/03/18 00:48:36;;;;;;;17.87;12.00;;;;;;;;;;4984796;28;20191;-71
2023/03/18 00:51:01;;;;;;;16.90;13.17;;;;;;;;;;5014670;23;20253;-68
2023/03/18 00:53:26;;;;;;;14.53;12.63;;;;;;;;;;5011366;28;20187;-68
2023/03/18 00:55:51;;;;;;;21.57;13.23;;;;;;;;;;5011761;28;20253;-70
2023/03/18 00:58:17;;;;;;;17.23;13.00;;;;;;;;;;5012738;28;20318;-68
2023/03/18 01:00:43;;;;;;;16.37;13.43;;;;;;;;;;5005877;28;20211;-68
2023/03/18 01:03:08;;;;;;;16.30;13.10;;;;;;;;;;4980368;28;20179;-69
2023/03/18 01:05:34;;;;;;;16.70;12.18;;;;;;;;;;4990323;28;20649;-68
2023/03/18 01:08:00;;;;;;;16.03;13.10;;;;;;;;;;4991608;28;20475;-68
2023/03/18 01:10:26;;;;;;;14.90;12.03;;;;;;;;;;4991366;28;20207;-68
2023/03/18 01:12:52;;;;;;;15.60;12.23;;;;;;;;;;4988096;28;20187;-67
2023/03/18 01:15:18;;;;;;;18.13;13.80;;;;;;;;;;4988051;28;20241;-68
2023/03/18 01:17:44;;;;;;;15.97;12.47;;;;;;;;;;4993950;28;20691;-69
2023/03/18 01:20:11;;;;;;;17.73;13.20;;;;;;;;;;4982080;28;20185;-69
2023/03/18 01:22:38;;;;;;;17.90;14.03;;;;;;;;;;4991205;28;20708;-69
2023/03/18 01:25:03;;;;;;;17.10;13.70;;;;;;;;;;4986279;28;20668;-69
2023/03/18 01:27:28;;;;;;;16.73;12.43;;;;;;;;;;4981595;28;20188;-68
2023/03/18 01:29:53;;;;;;;16.40;13.03;;;;;;;;;;4986420;28;20213;-68
2023/03/18 01:32:18;;;;;;;17.87;13.80;;;;;;;;;;4983904;28;20670;-68
2023/03/18 01:34:44;;;;;;;19.60;13.63;;;;;;;;;;4990554;28;20188;-68
2023/03/18 01:37:10;;;;;;;17.60;13.90;;;;;;;;;;4984886;28;20230;-68
2023/03/18 01:39:35;;;;;;;19.57;12.80;;;;;;;;;;4976323;28;20667;-68
2023/03/18 01:42:01;;;;;;;17.27;13.33;;;;;;;;;;4985834;28;20246;-68
2023/03/18 01:44:26;;;;;;;19.17;13.50;;;;;;;;;;4984322;28;20226;-68
2023/03/18 01:46:52;;;;;;;19.63;14.77;;;;;;;;;;4989984;28;20634;-68
2023/03/18 01:49:17;;;;;;;22.60;14.03;;;;;;;;;;4992764;28;20239;-68
2023/03/18 01:51:45;;;;;;;15.57;12.57;;;;;;;;;;4989100;28;20600;-68
2023/03/18 01:54:11;;;;;;;16.47;13.57;;;;;;;;;;4988981;28;20210;-68
2023/03/18 01:56:38;;;;;;;20.00;14.30;;;;;;;;;;4991508;28;20192;-68
2023/03/18 01:59:04;;;;;;;20.23;14.40;;;;;;;;;;4981117;28;20192;-68
2023/03/18 02:01:33;;;;;;;19.17;14.57;;;;;;;;;;4989931;28;20298;-69
2023/03/18 02:04:01;;;;;;;18.23;14.13;;;;;;;;;;4990962;28;20272;-69
2023/03/18 02:06:26;;;;;;;20.30;14.98;;;;;;;;;;4993323;28;20188;-69
2023/03/18 02:08:51;;;;;;;22.90;15.57;;;;;;;;;;4996835;28;20213;-69
2023/03/18 02:11:17;;;;;;;20.70;15.20;;;;;;;;;;4986345;28;20202;-69
2023/03/18 02:13:44;;;;;;;21.73;15.00;;;;;;;;;;4986754;28;20622;-68
2023/03/18 02:16:14;;;;;;;17.93;15.20;;;;;;;;;;4982731;28;20227;-69
2023/03/18 02:18:42;;;;;;;15.93;13.30;;;;;;;;;;4981426;28;20192;-68
2023/03/18 02:21:25;;;;;;;20.58;15.20;;;;;;;;;;4976154;28;20212;-68
2023/03/18 02:24:01;;;;;;;17.40;13.45;;;;;;;;;;4982905;28;20542;-68
2023/03/18 02:26:38;;;;;;;20.85;14.85;;;;;;;;;;4984618;28;20179;-68
2023/03/18 02:29:05;;;;;;;18.97;14.57;;;;;;;;;;4988986;28;20239;-69
2023/03/18 02:31:31;;;;;;;18.73;14.37;;;;;;;;;;4983624;28;20633;-68
2023/03/18 02:33:58;;;;;;;21.67;15.87;;;;;;;;;;4974334;28;20184;-69
2023/03/18 02:36:26;;;;;;;19.33;15.57;;;;;;;;;;4989669;28;20180;-69
2023/03/18 02:38:51;;;;;;;18.10;15.60;;;;;;;;;;4987205;28;20719;-68
2023/03/18 02:41:18;;;;;;;19.38;15.18;;;;;;;;;;4991555;28;20230;-68
2023/03/18 02:43:44;;;;;;;21.20;15.27;;;;;;;;;;4983273;28;20215;-68
2023/03/18 02:46:45;;;;;;;20.33;15.33;;;;;;;;;;4988510;28;20664;-69
2023/03/18 02:49:10;;;;;;;17.65;14.43;;;;;;;;;;4922754;29;20208;-69
2023/03/18 02:51:36;;;;;;;18.45;14.30;;;;;;;;;;4977674;28;20231;-69
2023/03/18 02:54:07;;;;;;;22.08;15.73;;;;;;;;;;4986868;28;20186;-68
2023/03/18 02:56:32;;;;;;;20.83;14.63;;;;;;;;;;4991396;28;20679;-68
2023/03/18 02:58:57;;;;;;;23.90;15.50;;;;;;;;;;4995367;28;20184;-69
2023/03/18 03:01:23;;;;;;;21.45;15.23;;;;;;;;;;4991981;28;20199;-68
2023/03/18 03:03:49;;;;;;;21.27;15.80;;;;;;;;;;4984384;28;20616;-69
2023/03/18 03:06:14;;;;;;;21.70;15.23;;;;;;;;;;4989204;28;20190;-69
2023/03/18 03:08:40;;;;;;;20.07;15.60;;;;;;;;;;4982855;28;20208;-68
2023/03/18 03:11:07;;;;;;;18.67;15.00;;;;;;;;;;4987168;28;20203;-68
2023/03/18 03:13:32;;;;;;;17.47;14.33;;;;;;;;;;4986854;28;20183;-68
2023/03/18 03:15:57;;;;;;;22.60;15.53;;;;;;;;;;4989194;28;20190;-68
2023/03/18 03:18:22;;;;;;;18.70;14.33;;;;;;;;;;4971707;28;20180;-69
2023/03/18 03:20:49;;;;;;;22.63;15.30;;;;;;;;;;4983614;28;20214;-68
2023/03/18 03:23:15;;;;;;;17.50;14.03;;;;;;;;;;4978328;28;20196;-70
2023/03/18 03:25:41;;;;;;;17.00;13.33;;;;;;;;;;4985663;28;20195;-68
2023/03/18 03:28:07;;;;;;;18.67;14.13;;;;;;;;;;4979418;28;20188;-68
2023/03/18 03:30:32;;;;;;;19.53;13.33;;;;;;;;;;4986284;28;20602;-70
2023/03/18 03:32:58;;;;;;;20.48;13.60;;;;;;;;;;4986370;28;20183;-69
2023/03/18 03:35:23;;;;;;;20.43;13.73;;;;;;;;;;4986632;28;20239;-69
2023/03/18 03:37:48;;;;;;;17.97;13.00;;;;;;;;;;4992271;28;20191;-69
2023/03/18 03:40:15;;;;;;;15.90;13.13;;;;;;;;;;4986525;28;21578;-69
2023/03/18 03:42:41;;;;;;;18.35;13.52;;;;;;;;;;4987044;28;20229;-69
2023/03/18 03:45:06;;;;;;;19.10;13.37;;;;;;;;;;4977048;28;20191;-68
2023/03/18 03:47:32;;;;;;;21.25;13.82;;;;;;;;;;4990021;28;20246;-69
2023/03/18 03:49:57;;;;;;;18.43;13.00;;;;;;;;;;4981457;28;20215;-69
2023/03/18 03:52:22;;;;;;;18.77;12.77;;;;;;;;;;4985190;28;20207;-68
2023/03/18 03:54:49;;;;;;;20.10;13.90;;;;;;;;;;4987181;28;20565;-68
2023/03/18 03:57:14;;;;;;;25.97;14.03;;;;;;;;;;4990375;28;20238;-68
2023/03/18 03:59:39;;;;;;;17.10;13.97;;;;;;;;;;4989786;28;20180;-69
2023/03/18 04:02:05;;;;;;;21.80;12.93;;;;;;;;;;4992384;28;20203;-69
2023/03/18 04:04:30;;;;;;;17.30;14.83;;;;;;;;;;4987823;28;20185;-68
2023/03/18 04:06:57;;;;;;;20.40;13.70;;;;;;;;;;4988010;28;20534;-68
2023/03/18 04:09:22;;;;;;;20.70;12.70;;;;;;;;;;4993678;28;20665;-69
2023/03/18 04:11:47;;;;;;;18.67;12.63;;;;;;;;;;4993170;28;20211;-69
2023/03/18 04:14:13;;;;;;;16.10;13.07;;;;;;;;;;4993103;28;20183;-69
2023/03/18 04:16:38;;;;;;;19.92;11.88;;;;;;;;;;4994606;28;20171;-69
2023/03/18 04:19:05;;;;;;;16.77;12.40;;;;;;;;;;4994505;28;20434;-69
2023/03/18 04:21:30;;;;;;;19.93;13.17;;;;;;;;;;4994042;28;20872;-69
2023/03/18 04:23:56;;;;;;;18.50;13.17;;;;;;;;;;4993747;28;20179;-69
2023/03/18 04:26:21;;;;;;;13.93;12.43;;;;;;;;;;4994343;28;20184;-69
2023/03/18 04:28:46;;;;;;;18.03;13.80;;;;;;;;;;4994332;28;20666;-69
2023/03/18 04:31:12;;;;;;;17.47;13.13;;;;;;;;;;4994355;28;20207;-69
2023/03/18 04:33:37;;;;;;;19.23;13.97;;;;;;;;;;4993004;28;20657;-69
2023/03/18 04:36:02;;;;;;;17.93;14.27;;;;;;;;;;4993401;28;20177;-70
2023/03/18 04:38:28;;;;;;;18.83;13.63;;;;;;;;;;4987574;28;20186;-69
2023/03/18 04:40:53;;;;;;;20.20;14.90;;;;;;;;;;4989623;28;20230;-69
2023/03/18 04:43:18;;;;;;;17.87;13.93;;;;;;;;;;4987727;28;20267;-69
2023/03/18 04:45:44;;;;;;;17.53;14.63;;;;;;;;;;4978109;28;20205;-69
2023/03/18 04:48:09;;;;;;;18.30;14.47;;;;;;;;;;4980340;28;20171;-69
2023/03/18 04:50:34;;;;;;;23.73;13.60;;;;;;;;;;4981417;28;20222;-69
2023/03/18 04:53:00;;;;;;;17.47;14.30;;;;;;;;;;4985912;28;20181;-69
2023/03/18 04:55:25;;;;;;;20.23;14.60;;;;;;;;;;4990798;28;20175;-69
2023/03/18 04:57:51;;;;;;;17.37;13.83;;;;;;;;;;4983313;28;20240;-69
2023/03/18 05:00:20;;;;;;;18.80;14.17;;;;;;;;;;4987054;28;20219;-69
2023/03/18 05:02:45;;;;;;;18.83;14.00;;;;;;;;;;4985778;28;20234;-69
2023/03/18 05:05:10;;;;;;;22.63;14.03;;;;;;;;;;4990716;28;20211;-69
2023/03/18 05:07:36;;;;;;;23.13;14.73;;;;;;;;;;4987888;28;20203;-69
2023/03/18 05:10:05;;;;;;;22.87;14.73;;;;;;;;;;4984258;28;20294;-69
2023/03/18 05:12:31;;;;;;;21.53;15.10;;;;;;;;;;4985231;28;20668;-68
2023/03/18 05:14:56;;;;;;;20.00;13.53;;;;;;;;;;4988446;28;20180;-68
2023/03/18 05:17:21;;;;;;;20.03;14.47;;;;;;;;;;4989259;28;20176;-69
2023/03/18 05:19:47;;;;;;;27.93;16.23;;;;;;;;;;4982861;28;20191;-70
2023/03/18 05:22:14;;;;;;;18.23;13.87;;;;;;;;;;4975392;28;20199;-69
2023/03/18 05:24:40;;;;;;;18.20;13.33;;;;;;;;;;4980005;28;20195;-69
2023/03/18 05:27:06;;;;;;;18.40;13.87;;;;;;;;;;4985066;28;20226;-69
2023/03/18 05:29:31;;;;;;;18.53;13.17;;;;;;;;;;4980618;28;20227;-69
2023/03/18 05:31:56;;;;;;;17.00;12.90;;;;;;;;;;4990088;28;20217;-68
2023/03/18 05:34:22;;;;;;;16.07;13.57;;;;;;;;;;4991526;28;20187;-69
2023/03/18 05:36:47;;;;;;;22.93;14.67;;;;;;;;;;4984438;28;20172;-69
2023/03/18 05:39:13;;;;;;;19.70;12.53;;;;;;;;;;4986848;28;20671;-69
2023/03/18 05:41:38;;;;;;;18.53;14.23;;;;;;;;;;4989526;28;20568;-69
2023/03/18 05:44:04;;;;;;;20.37;14.17;;;;;;;;;;4986903;28;20198;-69
2023/03/18 05:46:30;;;;;;;17.97;13.33;;;;;;;;;;4988304;28;20325;-69
2023/03/18 05:48:55;;;;;;;18.80;14.90;;;;;;;;;;4989116;28;20625;-68
2023/03/18 05:51:21;;;;;;;18.73;14.77;;;;;;;;;;4988117;28;20219;-69
2023/03/18 05:53:46;;;;;;;21.80;14.27;;;;;;;;;;4983312;28;20203;-68
2023/03/18 05:56:13;;;;;;;19.20;12.87;;;;;;;;;;4985903;28;20704;-68
2023/03/18 05:58:39;;;;;;;18.60;13.97;;;;;;;;;;4991702;28;20211;-68
2023/03/18 06:01:04;;;;;;;22.83;14.40;;;;;;;;;;4988872;28;20240;-68
2023/03/18 06:03:30;;;;;;;20.23;13.27;;;;;;;;;;4984971;28;20184;-68
2023/03/18 06:05:56;;;;;;;20.87;14.10;;;;;;;;;;4989179;28;20668;-68
2023/03/18 06:08:21;;;;;;;16.57;13.50;;;;;;;;;;4993006;28;20180;-69
2023/03/18 06:10:47;;;;;;;18.63;13.77;;;;;;;;;;4991686;28;20234;-68
2023/03/18 06:13:12;;;;;;;20.10;14.33;;;;;;;;;;4992123;28;20191;-69
2023/03/18 06:15:37;;;;;;;17.33;14.33;;;;;;;;;;4992881;28;20171;-68
2023/03/18 06:18:03;;;;;;;21.73;14.30;;;;;;;;;;4990311;28;20187;-70
2023/03/18 06:20:29;;;;;;;21.70;15.03;;;;;;;;;;4986885;28;20669;-68
2023/03/18 06:22:54;;;;;;;17.20;14.03;;;;;;;;;;4991142;28;20195;-68
2023/03/18 06:25:20;;;;;;;19.17;14.20;;;;;;;;;;4992046;28;20180;-70
2023/03/18 06:27:46;;;;;;;17.43;13.30;;;;;;;;;;4992308;28;20199;-69
2023/03/18 06:30:12;;;;;;;20.00;13.97;;;;;;;;;;4991422;28;20227;-68
2023/03/18 06:32:39;;;;;;;18.57;13.63;;;;;;;;;;4992228;28;20649;-68
2023/03/18 06:35:04;;;;;;;19.53;14.50;;;;;;;;;;4988726;28;20183;-68
2023/03/18 06:37:29;;;;;;;24.60;14.83;;;;;;;;;;4982331;28;20738;-68
2023/03/18 06:39:55;;;;;;;22.07;14.87;;;;;;;;;;4985895;28;20538;-69
2023/03/18 06:42:20;;;;;;;16.70;13.20;;;;;;;;;;4988425;28;20226;-68
2023/03/18 06:44:49;;;;;;;21.23;14.17;;;;;;;;;;4989681;28;20707;-69
2023/03/18 06:47:15;;;;;;;20.00;13.40;;;;;;;;;;4979387;28;20199;-69
2023/03/18 06:49:41;;;;;;;20.50;14.73;;;;;;;;;;4983787;28;20266;-68
2023/03/18 06:52:06;;;;;;;22.83;15.87;;;;;;;;;;5005498;23;20227;-73
2023/03/18 06:54:33;;;;;;;20.00;15.57;;;;;;;;;;5010169;28;20274;-74
2023/03/18 06:56:58;;;;;;;22.27;15.90;;;;;;;;;;5009621;28;20185;-73
2023/03/18 06:59:23;;;;;;;19.67;14.97;;;;;;;;;;5008465;28;20191;-73
2023/03/18 07:01:49;;;;;;;21.70;15.47;;;;;;;;;;4996852;28;20661;-73
2023/03/18 07:04:14;;;;;;;23.08;15.45;;;;;;;;;;4996410;28;20198;-72
2023/03/18 07:06:39;;;;;;;21.93;15.83;;;;;;;;;;5002825;28;20190;-72
2023/03/18 07:09:05;;;;;;;24.10;16.73;;;;;;;;;;5004537;28;20206;-73
2023/03/18 07:11:30;;;;;;;25.97;17.80;;;;;;;;;;5006703;28;20226;-73
2023/03/18 07:13:56;;;;;;;24.33;17.23;;;;;;;;;;4992763;28;20192;-73
2023/03/18 07:16:21;;;;;;;21.90;15.35;;;;;;;;;;5007929;28;20179;-73
2023/03/18 07:18:46;;;;;;;20.95;15.05;;;;;;;;;;5002581;28;20187;-72
2023/03/18 07:21:12;;;;;;;20.55;16.63;;;;;;;;;;5006744;28;20297;-72
2023/03/18 07:23:38;;;;;;;20.17;15.65;;;;;;;;;;5006228;28;20265;-72
2023/03/18 07:26:03;;;;;;;21.83;14.90;;;;;;;;;;5006281;28;20181;-73
2023/03/18 07:28:28;;;;;;;21.45;13.35;;;;;;;;;;5005658;28;20668;-72
2023/03/18 07:30:53;;;;;;;19.30;14.70;;;;;;;;;;4997933;28;20204;-73
2023/03/18 07:33:19;;;;;;;20.00;14.40;;;;;;;;;;5001518;28;20179;-73
2023/03/18 07:35:44;;;;;;;21.20;14.10;;;;;;;;;;4992687;28;20326;-73
2023/03/18 07:38:10;;;;;;;16.23;12.70;;;;;;;;;;5002827;28;20712;-73
2023/03/18 07:40:36;;;;;;;17.70;13.38;;;;;;;;;;4998512;28;20187;-71
2023/03/18 07:43:02;;;;;;;23.38;15.50;;;;;;;;;;5005173;28;20214;-73
2023/03/18 07:45:28;;;;;;;17.17;12.68;;;;;;;;;;5005125;28;20190;-73
2023/03/18 07:47:53;;;;;;;17.20;12.63;;;;;;;;;;5005006;28;20241;-73
2023/03/18 07:50:18;;;;;;;20.50;13.85;;;;;;;;;;5009509;28;20206;-73
2023/03/18 07:52:43;;;;;;;17.33;12.27;;;;;;;;;;4995147;28;20250;-73
2023/03/18 07:55:10;;;;;;;17.13;12.52;;;;;;;;;;5003361;28;20191;-73
2023/03/18 07:57:36;;;;;;;15.25;10.55;;;;;;;;;;5002892;28;20270;-73
2023/03/18 08:00:03;;;;;;;15.70;12.65;;;;;;;;;;4997791;28;20278;-73
2023/03/18 08:02:29;;;;;;;14.15;10.43;;;;;;;;;;5008201;28;20703;-73
2023/03/18 08:04:54;;;;;;;14.88;11.02;;;;;;;;;;4999571;28;20211;-72
2023/03/18 08:07:19;;;;;;;12.77;10.60;;;;;;;;;;4996338;28;20171;-73
2023/03/18 08:09:44;;;;;;;12.85;11.48;;;;;;;;;;5011065;28;20210;-73
2023/03/18 08:12:09;;;;;;;14.00;11.80;;;;;;;;;;4995105;28;20275;-73
2023/03/18 08:14:35;;;;;;;12.82;10.23;;;;;;;;;;5004550;28;20652;-72
2023/03/18 08:17:01;;;;;;;14.65;10.00;;;;;;;;;;5000880;28;20600;-72
2023/03/18 08:19:26;;;;;;;14.63;9.88;;;;;;;;;;5005574;28;20183;-72
2023/03/18 08:21:51;;;;;;;13.80;11.00;;;;;;;;;;5002700;28;20685;-73
2023/03/18 08:24:17;;;;;;;12.45;9.70;;;;;;;;;;5010989;28;20183;-72
2023/03/18 08:26:42;;;;;;;15.93;10.80;;;;;;;;;;5005656;28;20229;-72
2023/03/18 08:29:07;;;;;;;15.63;10.80;;;;;;;;;;5002737;28;20207;-72
2023/03/18 08:31:32;;;;;;;16.27;10.05;;;;;;;;;;5010524;28;20194;-72
2023/03/18 08:33:59;;;;;;;13.57;9.57;;;;;;;;;;5001335;28;20180;-72
2023/03/18 08:36:25;;;;;;;13.93;9.90;;;;;;;;;;5009880;28;20641;-72
2023/03/18 08:38:51;;;;;;;13.70;10.00;;;;;;;;;;5005739;28;20190;-72
2023/03/18 08:41:16;;;;;;;13.65;11.32;;;;;;;;;;5008944;28;20191;-73
2023/03/18 08:43:41;;;;;;;14.68;11.35;;;;;;;;;;5008807;28;20193;-72
2023/03/18 08:46:06;;;;;;;14.65;11.85;;;;;;;;;;5011878;28;20183;-72
2023/03/18 08:48:32;;;;;;;15.82;11.27;;;;;;;;;;5010602;28;20539;-71
2023/03/18 08:50:57;;;;;;;13.82;10.25;;;;;;;;;;5005998;28;20230;-73
2023/03/18 08:53:23;;;;;;;15.55;11.40;;;;;;;;;;5010454;28;20518;-72
2023/03/18 08:55:48;;;;;;;15.05;11.52;;;;;;;;;;5012847;28;20529;-72
2023/03/18 08:58:13;;;;;;;13.80;11.10;;;;;;;;;;5007873;28;20191;-72
2023/03/18 09:00:39;;;;;;;16.90;11.63;;;;;;;;;;5009327;28;20529;-72
2023/03/18 09:03:04;;;;;;;16.40;11.25;;;;;;;;;;4995481;28;20183;-72
2023/03/18 09:05:30;;;;;;;17.05;12.70;;;;;;;;;;5004412;28;20190;-73
2023/03/18 09:07:57;;;;;;;16.80;11.32;;;;;;;;;;5012982;28;20203;-73
2023/03/18 09:10:22;;;;;;;15.45;11.00;;;;;;;;;;5012755;28;20197;-73
2023/03/18 09:12:48;;;;;;;13.88;10.57;;;;;;;;;;5010287;28;20195;-72
2023/03/18 09:15:15;;;;;;;14.82;10.88;;;;;;;;;;5012109;28;20182;-73
2023/03/18 09:17:40;;;;;;;22.45;13.45;;;;;;;;;;4995776;28;20179;-72
2023/03/18 09:20:07;;;;;;;19.65;12.85;;;;;;;;;;5009020;28;20301;-72
2023/03/18 09:22:32;;;;;;;13.18;11.27;;;;;;;;;;5010576;28;20199;-72
2023/03/18 09:24:58;;;;;;;12.73;9.85;;;;;;;;;;5005508;28;20195;-72
2023/03/18 09:27:23;;;;;;;11.77;10.13;;;;;;;;;;5014174;28;20179;-72
2023/03/18 09:29:49;;;;;;;14.38;10.65;;;;;;;;;;5010224;28;20216;-72
2023/03/18 09:32:15;;;;;;;14.43;10.43;;;;;;;;;;5013783;28;20669;-71
2023/03/18 09:34:40;;;;;;;17.55;12.32;;;;;;;;;;5011169;28;20185;-71
2023/03/18 09:37:05;;;;;;;14.98;10.85;;;;;;;;;;5008573;28;20222;-72
2023/03/18 09:39:30;;;;;;;13.50;10.70;;;;;;;;;;5006952;28;20286;-72
2023/03/18 09:42:08;;;;;;;13.35;10.27;;;;;;;;;;5006244;28;20680;-71
2023/03/18 09:44:35;;;;;;;13.10;10.55;;;;;;;;;;5001746;28;20233;-72
2023/03/18 09:47:00;;;;;;;13.95;10.20;;;;;;;;;;5009686;28;20186;-72
2023/03/18 09:49:28;;;;;;;12.97;9.50;;;;;;;;;;5003483;28;20265;-71
2023/03/18 09:51:53;;;;;;;13.45;10.10;;;;;;;;;;5002589;28;20485;-73
2023/03/18 09:54:30;;;;;;;13.85;9.55;;;;;;;;;;5004575;28;20676;-72
2023/03/18 09:56:56;;;;;;;11.50;8.32;;;;;;;;;;5007830;28;20746;-72
2023/03/18 09:59:30;;;;;;;11.23;8.52;;;;;;;;;;5008337;28;20180;-72
2023/03/18 10:01:56;;;;;;;9.50;7.63;;;;;;;;;;5013341;28;20202;-72
2023/03/18 10:04:24;;;;;;;14.38;8.98;;;;;;;;;;5007690;28;20642;-72
2023/03/18 10:06:52;;;;;;;12.27;9.27;;;;;;;;;;4998995;28;20249;-70
2023/03/18 10:09:18;;;;;;;11.10;7.78;;;;;;;;;;5006731;28;20676;-72
2023/03/18 10:11:45;;;;;;;10.47;7.37;;;;;;;;;;5007333;28;20338;-70
2023/03/18 10:14:22;;;;;;;9.52;7.22;;;;;;;;;;5009260;28;20945;-70
2023/03/18 10:17:05;;;;;;;11.68;7.65;;;;;;;;;;5001103;28;20175;-70
2023/03/18 10:19:32;;;;;;;9.35;7.22;;;;;;;;;;5004549;28;20650;-72
2023/03/18 10:22:30;;;;;;;10.07;7.50;;;;;;;;;;5009055;28;20226;-72
2023/03/18 10:25:12;;;;;;;11.23;7.75;;;;;;;;;;4958832;28;20210;-70
2023/03/18 10:27:37;;;;;;;9.70;7.15;;;;;;;;;;5001279;28;20267;-70
2023/03/18 10:30:18;;;;;;;10.33;7.00;;;;;;;;;;5000251;28;20297;-70
2023/03/18 10:32:43;;;;;;;8.93;7.03;;;;;;;;;;5006370;28;20445;-70
2023/03/18 10:35:26;;;;;;;9.83;7.10;;;;;;;;;;5000531;28;20182;-70
2023/03/18 10:38:03;;;;;;;9.25;7.20;;;;;;;;;;5000814;28;21068;-70
2023/03/18 10:40:33;;;;;;;10.30;6.93;;;;;;;;;;5004122;28;20210;-70
2023/03/18 10:42:59;;;;;;;9.48;7.05;;;;;;;;;;5008251;28;20179;-70
2023/03/18 10:45:27;;;;;;;8.73;6.93;;;;;;;;;;4999862;28;21670;-69
2023/03/18 10:47:57;;;;;;;8.70;6.55;;;;;;;;;;5008598;28;20653;-70
2023/03/18 10:50:35;;;;;;;8.88;6.40;;;;;;;;;;5010198;28;20214;-70
2023/03/18 10:53:19;;;;;;;9.02;6.13;;;;;;;;;;5005876;28;20615;-70
2023/03/18 10:55:52;;;;;;;9.52;6.40;;;;;;;;;;5008276;28;20179;-71
2023/03/18 10:58:18;;;;;;;10.05;6.85;;;;;;;;;;5008621;28;20191;-70
2023/03/18 11:00:44;;;;;;;8.68;7.05;;;;;;;;;;5005639;28;20210;-70
2023/03/18 11:03:17;;;;;;;9.10;7.78;;;;;;;;;;5008902;28;20638;-70
2023/03/18 11:05:42;;;;;;;8.68;7.07;;;;;;;;;;5004940;28;20201;-70
2023/03/18 11:08:27;;;;;;;11.05;7.35;;;;;;;;;;5011011;28;20183;-70
2023/03/18 11:10:52;;;;;;;9.15;6.07;;;;;;;;;;5010507;28;20211;-70
2023/03/18 11:13:19;;;;;;;10.90;6.00;;;;;;;;;;5007804;28;20193;-71
2023/03/18 11:15:51;;;;;;;7.28;6.38;;;;;;;;;;5010894;28;20186;-70
2023/03/18 11:18:20;;;;;;;10.20;6.45;;;;;;;;;;5009032;28;20179;-70
2023/03/18 11:20:48;;;;;;;9.50;6.10;;;;;;;;;;5009836;28;20791;-73
2023/03/18 11:23:34;;;;;;;10.00;5.88;;;;;;;;;;5011196;28;20545;-71
2023/03/18 11:26:00;;;;;;;8.68;6.05;;;;;;;;;;5010157;28;20201;-70
2023/03/18 11:28:27;;;;;;;6.43;5.68;;;;;;;;;;5010678;28;20652;-70
2023/03/18 11:30:57;;;;;;;9.00;6.10;;;;;;;;;;5010245;28;20766;-71
2023/03/18 11:33:23;;;;;;;10.07;6.70;;;;;;;;;;5009705;28;20190;-71
2023/03/18 11:35:53;;;;;;;9.98;7.22;;;;;;;;;;5010958;28;20228;-71
2023/03/18 11:38:20;;;;;;;8.98;7.05;;;;;;;;;;5011094;28;20316;-71
2023/03/18 11:40:45;;;;;;;8.13;6.07;;;;;;;;;;5011716;28;20194;-71
2023/03/18 11:43:18;;;;;;;8.45;6.65;;;;;;;;;;5001214;28;20175;-71
2023/03/18 11:45:44;;;;;;;6.95;6.25;;;;;;;;;;4987851;28;20767;-70
2023/03/18 11:48:28;;;;;;;7.78;6.45;;;;;;;;;;5007814;28;20187;-71
2023/03/18 11:51:04;;;;;;;7.75;6.30;;;;;;;;;;5006834;28;20211;-70
2023/03/18 11:53:37;;;;;;;7.70;5.93;;;;;;;;;;5002114;28;20722;-70
2023/03/18 11:56:20;;;;;;;8.38;6.13;;;;;;;;;;5005878;28;20178;-71
2023/03/18 11:58:49;;;;;;;10.90;7.32;;;;;;;;;;4998877;28;20257;-70
2023/03/18 12:01:22;;;;;;;10.02;7.43;;;;;;;;;;4998567;28;20623;-70
2023/03/18 12:04:17;;;;;;;7.70;6.47;;;;;;;;;;4996798;28;20186;-70
2023/03/18 12:07:07;;;;;;;7.90;6.43;;;;;;;;;;4989134;28;20260;-70
2023/03/18 12:10:11;;;;;;;8.00;5.72;;;;;;;;;;5001396;28;20552;-70
2023/03/18 12:12:37;;;;;;;6.50;5.05;;;;;;;;;;4967842;28;20212;-70
2023/03/18 12:15:02;;;;;;;10.20;5.75;;;;;;;;;;4998469;28;20183;-71
2023/03/18 12:17:46;;;;;;;9.13;5.70;;;;;;;;;;5009259;28;20183;-71
2023/03/18 12:20:33;;;;;;;6.20;3.67;;;;;;;;;;5023031;28;20175;-70
2023/03/18 12:22:58;;;;;;;5.63;3.72;;;;;;;;;;5008379;28;20187;-71
2023/03/18 12:25:32;;;;;;;6.55;4.38;;;;;;;;;;5005570;28;20226;-71
2023/03/18 12:28:00;;;;;;;6.72;4.38;;;;;;;;;;5010614;28;20187;-70
2023/03/18 12:30:41;;;;;;;5.70;4.45;;;;;;;;;;5008718;28;20294;-70
2023/03/18 12:33:20;;;;;;;8.02;4.78;;;;;;;;;;5011628;28;20652;-70
2023/03/18 12:35:52;;;;;;;9.52;4.30;;;;;;;;;;5008360;28;20642;-70
2023/03/18 12:38:34;;;;;;;7.95;4.75;;;;;;;;;;5013696;28;20183;-70
2023/03/18 12:41:13;;;;;;;5.68;3.78;;;;;;;;;;5006314;28;20186;-70
2023/03/18 12:43:59;;;;;;;6.97;4.15;;;;;;;;;;5013782;28;20276;-70
2023/03/18 12:46:28;;;;;;;9.73;5.05;;;;;;;;;;4965469;28;20203;-70
2023/03/18 12:48:57;;;;;;;7.60;4.75;;;;;;;;;;5010072;28;20775;-71
2023/03/18 12:51:24;;;;;;;6.85;4.38;;;;;;;;;;5005814;28;20225;-71
2023/03/18 12:53:55;;;;;;;7.63;5.72;;;;;;;;;;5010740;28;20287;-70
2023/03/18 12:56:26;;;;;;;7.00;5.10;;;;;;;;;;5009537;28;20175;-70
2023/03/18 12:58:54;;;;;;;7.78;4.93;;;;;;;;;;5011175;28;20194;-70
2023/03/18 13:01:23;;;;;;;6.50;4.93;;;;;;;;;;5006726;28;20203;-70
2023/03/18 13:03:54;;;;;;;6.82;4.68;;;;;;;;;;5005880;28;20186;-71
2023/03/18 13:06:34;;;;;;;8.38;4.95;;;;;;;;;;5000107;28;20193;-70
2023/03/18 13:09:20;;;;;;;10.23;5.25;;;;;;;;;;5007678;28;20359;-70
2023/03/18 13:11:58;;;;;;;5.93;4.40;;;;;;;;;;5000286;28;20209;-70
2023/03/18 13:14:46;;;;;;;6.97;3.95;;;;;;;;;;5008330;28;20178;-70
2023/03/18 13:17:22;;;;;;;5.47;3.92;;;;;;;;;;5019027;28;20236;-70
2023/03/18 13:19:48;;;;;;;5.30;3.38;;;;;;;;;;5008031;28;20191;-70
2023/03/18 13:22:13;;;;;;;5.20;3.78;;;;;;;;;;5010011;28;20218;-71
2023/03/18 13:24:48;;;;;;;3.77;3.20;;;;;;;;;;5000983;28;20269;-70
2023/03/18 13:27:28;;;;;;;5.78;3.90;;;;;;;;;;5005993;28;20471;-70
2023/03/18 13:30:09;;;;;;;6.95;3.90;;;;;;;;;;5009432;28;20229;-70
2023/03/18 13:33:00;;;;;;;6.35;3.40;;;;;;;;;;5007372;28;20199;-70
2023/03/18 13:35:38;;;;;;;6.18;3.40;;;;;;;;;;4984476;28;20187;-70
2023/03/18 13:38:07;;;;;;;5.00;2.92;;;;;;;;;;5005025;28;20195;-71
2023/03/18 13:40:43;;;;;;;5.55;2.88;;;;;;;;;;5005825;28;20297;-70
2023/03/18 13:43:14;;;;;;;8.05;3.35;;;;;;;;;;5002970;28;20185;-70
2023/03/18 13:45:43;;;;;;;7.78;3.10;;;;;;;;;;5000710;28;20189;-70
2023/03/18 13:48:13;;;;;;;5.80;3.13;;;;;;;;;;5008826;28;20175;-70
2023/03/18 13:50:42;;;;;;;5.57;3.45;;;;;;;;;;5006775;28;20214;-70
2023/03/18 13:53:19;;;;;;;4.57;2.92;;;;;;;;;;5008038;28;20198;-70
2023/03/18 13:55:46;;;;;;;4.13;2.92;;;;;;;;;;5006604;28;20179;-70
2023/03/18 13:58:21;;;;;;;4.88;2.70;;;;;;;;;;5008022;28;20179;-70
2023/03/18 14:00:55;;;;;;;4.65;2.88;;;;;;;;;;5006124;28;20202;-70
2023/03/18 14:03:25;;;;;;;5.88;2.60;;;;;;;;;;5005856;28;20181;-70
2023/03/18 14:06:03;;;;;;;4.38;2.20;;;;;;;;;;5004034;28;20175;-71
2023/03/18 14:08:37;;;;;;;4.00;2.38;;;;;;;;;;5001660;28;20341;-70
2023/03/18 14:11:24;;;;;;;3.72;2.08;;;;;;;;;;5002372;28;20219;-70
2023/03/18 14:13:55;;;;;;;3.63;2.30;;;;;;;;;;5006019;28;20811;-70
2023/03/18 14:16:26;;;;;;;5.13;2.60;;;;;;;;;;4998140;28;20305;-70
2023/03/18 14:18:56;;;;;;;4.70;3.13;;;;;;;;;;5000811;28;20179;-70
2023/03/18 14:21:29;;;;;;;2.65;1.90;;;;;;;;;;5002448;28;20191;-70
2023/03/18 14:24:12;;;;;;;3.72;1.92;;;;;;;;;;5002019;28;20262;-70
2023/03/18 14:26:38;;;;;;;3.83;2.03;;;;;;;;;;4994718;28;20730;-70
2023/03/18 14:29:06;;;;;;;3.13;1.70;;;;;;;;;;5004169;28;20215;-70
2023/03/18 14:31:37;;;;;;;2.30;1.70;;;;;;;;;;5003996;28;20688;-70